sensor_id;sensor_type;location;lat;lon;timestamp;P1;durP1;ratioP1;P2;durP2;ratioP2
51560;SDS011;37654;51.262;17.058;2023-08-07T00:00:58;9.40;;;6.00;;
51560;SDS011;37654;51.262;17.058;2023-08-07T00:03:24;11.07;;;6.37;;
51560;SDS011;37654;51.262;17.058;2023-08-07T00:05:49;12.10;;;6.20;;
51560;SDS011;37654;51.262;17.058;2023-08-07T00:08:16;14.52;;;6.55;;
51560;SDS011;37654;51.262;17.058;2023-08-07T00:10:42;10.63;;;5.40;;
51560;SDS011;37654;51.262;17.058;2023-08-07T00:13:07;9.63;;;5.93;;
51560;SDS011;37654;51.262;17.058;2023-08-07T00:15:32;7.43;;;5.57;;
51560;SDS011;37654;51.262;17.058;2023-08-07T00:17:58;8.57;;;5.53;;
51560;SDS011;37654;51.262;17.058;2023-08-07T00:20:24;9.23;;;5.95;;
51560;SDS011;37654;51.262;17.058;2023-08-07T00:22:49;11.43;;;6.70;;
51560;SDS011;37654;51.262;17.058;2023-08-07T00:25:14;12.80;;;6.93;;
51560;SDS011;37654;51.262;17.058;2023-08-07T00:27:39;12.43;;;6.93;;
51560;SDS011;37654;51.262;17.058;2023-08-07T00:30:05;11.00;;;6.20;;
51560;SDS011;37654;51.262;17.058;2023-08-07T00:32:30;9.73;;;6.38;;
51560;SDS011;37654;51.262;17.058;2023-08-07T00:34:56;9.98;;;6.35;;
51560;SDS011;37654;51.262;17.058;2023-08-07T00:37:21;12.70;;;6.67;;
51560;SDS011;37654;51.262;17.058;2023-08-07T00:39:46;11.03;;;5.93;;
51560;SDS011;37654;51.262;17.058;2023-08-07T00:42:11;12.33;;;7.83;;
51560;SDS011;37654;51.262;17.058;2023-08-07T00:44:37;10.02;;;5.78;;
51560;SDS011;37654;51.262;17.058;2023-08-07T00:47:02;10.87;;;5.70;;
51560;SDS011;37654;51.262;17.058;2023-08-07T00:49:27;11.25;;;6.45;;
51560;SDS011;37654;51.262;17.058;2023-08-07T00:51:53;13.20;;;6.78;;
51560;SDS011;37654;51.262;17.058;2023-08-07T00:54:18;29.00;;;16.95;;
51560;SDS011;37654;51.262;17.058;2023-08-07T00:56:44;31.80;;;19.08;;
51560;SDS011;37654;51.262;17.058;2023-08-07T00:59:10;28.85;;;16.50;;
51560;SDS011;37654;51.262;17.058;2023-08-07T01:01:35;24.40;;;11.85;;
51560;SDS011;37654;51.262;17.058;2023-08-07T01:04:01;21.33;;;10.65;;
51560;SDS011;37654;51.262;17.058;2023-08-07T01:06:27;18.70;;;8.65;;
51560;SDS011;37654;51.262;17.058;2023-08-07T01:08:52;12.37;;;6.93;;
51560;SDS011;37654;51.262;17.058;2023-08-07T01:11:20;20.37;;;6.13;;
51560;SDS011;37654;51.262;17.058;2023-08-07T01:16:28;10.43;;;5.32;;
51560;SDS011;37654;51.262;17.058;2023-08-07T01:18:53;8.05;;;4.97;;
51560;SDS011;37654;51.262;17.058;2023-08-07T01:21:20;9.13;;;5.07;;
51560;SDS011;37654;51.262;17.058;2023-08-07T01:23:48;10.00;;;5.20;;
51560;SDS011;37654;51.262;17.058;2023-08-07T01:26:14;9.65;;;5.07;;
51560;SDS011;37654;51.262;17.058;2023-08-07T01:28:42;9.02;;;4.80;;
51560;SDS011;37654;51.262;17.058;2023-08-07T01:31:11;10.40;;;4.97;;
51560;SDS011;37654;51.262;17.058;2023-08-07T01:36:18;11.10;;;5.20;;
51560;SDS011;37654;51.262;17.058;2023-08-07T01:38:44;10.18;;;5.78;;
51560;SDS011;37654;51.262;17.058;2023-08-07T01:41:10;11.88;;;5.82;;
51560;SDS011;37654;51.262;17.058;2023-08-07T01:43:39;9.80;;;5.85;;
51560;SDS011;37654;51.262;17.058;2023-08-07T01:46:04;10.80;;;6.47;;
51560;SDS011;37654;51.262;17.058;2023-08-07T01:48:31;11.02;;;5.50;;
51560;SDS011;37654;51.262;17.058;2023-08-07T01:50:57;11.23;;;5.90;;
51560;SDS011;37654;51.262;17.058;2023-08-07T01:53:22;10.43;;;6.00;;
51560;SDS011;37654;51.262;17.058;2023-08-07T01:55:48;12.03;;;5.83;;
51560;SDS011;37654;51.262;17.058;2023-08-07T01:58:13;12.00;;;7.37;;
51560;SDS011;37654;51.262;17.058;2023-08-07T02:00:38;12.63;;;6.40;;
51560;SDS011;37654;51.262;17.058;2023-08-07T02:03:03;19.83;;;8.20;;
51560;SDS011;37654;51.262;17.058;2023-08-07T02:05:28;18.17;;;7.40;;
51560;SDS011;37654;51.262;17.058;2023-08-07T02:07:54;16.97;;;6.97;;
51560;SDS011;37654;51.262;17.058;2023-08-07T02:10:21;17.67;;;7.63;;
51560;SDS011;37654;51.262;17.058;2023-08-07T02:12:47;13.30;;;6.60;;
51560;SDS011;37654;51.262;17.058;2023-08-07T02:15:12;18.35;;;7.65;;
51560;SDS011;37654;51.262;17.058;2023-08-07T02:17:38;13.23;;;7.30;;
51560;SDS011;37654;51.262;17.058;2023-08-07T02:20:06;10.77;;;6.50;;
51560;SDS011;37654;51.262;17.058;2023-08-07T02:22:31;10.43;;;6.18;;
51560;SDS011;37654;51.262;17.058;2023-08-07T02:24:56;15.00;;;7.20;;
51560;SDS011;37654;51.262;17.058;2023-08-07T02:27:22;21.57;;;7.97;;
51560;SDS011;37654;51.262;17.058;2023-08-07T02:29:47;21.73;;;8.87;;
51560;SDS011;37654;51.262;17.058;2023-08-07T02:32:12;20.77;;;7.43;;
51560;SDS011;37654;51.262;17.058;2023-08-07T02:34:37;13.68;;;6.90;;
51560;SDS011;37654;51.262;17.058;2023-08-07T02:37:03;17.97;;;7.20;;
51560;SDS011;37654;51.262;17.058;2023-08-07T02:39:28;18.73;;;8.23;;
51560;SDS011;37654;51.262;17.058;2023-08-07T02:41:53;14.23;;;7.37;;
51560;SDS011;37654;51.262;17.058;2023-08-07T02:44:19;12.87;;;6.37;;
51560;SDS011;37654;51.262;17.058;2023-08-07T02:46:45;12.57;;;6.70;;
51560;SDS011;37654;51.262;17.058;2023-08-07T02:49:10;15.73;;;6.18;;
51560;SDS011;37654;51.262;17.058;2023-08-07T02:51:35;13.43;;;6.83;;
51560;SDS011;37654;51.262;17.058;2023-08-07T02:54:00;15.97;;;8.37;;
51560;SDS011;37654;51.262;17.058;2023-08-07T02:56:26;19.38;;;8.80;;
51560;SDS011;37654;51.262;17.058;2023-08-07T02:58:51;16.83;;;7.13;;
51560;SDS011;37654;51.262;17.058;2023-08-07T03:01:17;16.20;;;6.68;;
51560;SDS011;37654;51.262;17.058;2023-08-07T03:03:42;17.80;;;7.20;;
51560;SDS011;37654;51.262;17.058;2023-08-07T03:06:08;16.33;;;8.13;;
51560;SDS011;37654;51.262;17.058;2023-08-07T03:08:33;13.07;;;6.05;;
51560;SDS011;37654;51.262;17.058;2023-08-07T03:10:58;7.83;;;5.33;;
51560;SDS011;37654;51.262;17.058;2023-08-07T03:13:24;10.35;;;5.85;;
51560;SDS011;37654;51.262;17.058;2023-08-07T03:15:50;7.82;;;5.13;;
51560;SDS011;37654;51.262;17.058;2023-08-07T03:18:16;8.35;;;5.57;;
51560;SDS011;37654;51.262;17.058;2023-08-07T03:20:41;9.90;;;5.40;;
51560;SDS011;37654;51.262;17.058;2023-08-07T03:23:08;12.50;;;6.53;;
51560;SDS011;37654;51.262;17.058;2023-08-07T03:25:33;12.68;;;5.90;;
51560;SDS011;37654;51.262;17.058;2023-08-07T03:27:59;10.87;;;6.43;;
51560;SDS011;37654;51.262;17.058;2023-08-07T03:30:24;14.13;;;6.30;;
51560;SDS011;37654;51.262;17.058;2023-08-07T03:32:49;9.83;;;5.93;;
51560;SDS011;37654;51.262;17.058;2023-08-07T03:35:15;12.00;;;6.47;;
51560;SDS011;37654;51.262;17.058;2023-08-07T03:37:40;14.60;;;6.18;;
51560;SDS011;37654;51.262;17.058;2023-08-07T03:40:05;12.03;;;6.03;;
51560;SDS011;37654;51.262;17.058;2023-08-07T03:42:31;10.45;;;6.60;;
51560;SDS011;37654;51.262;17.058;2023-08-07T03:44:56;11.87;;;5.57;;
51560;SDS011;37654;51.262;17.058;2023-08-07T03:47:21;12.73;;;5.67;;
51560;SDS011;37654;51.262;17.058;2023-08-07T03:49:47;10.10;;;5.78;;
51560;SDS011;37654;51.262;17.058;2023-08-07T03:52:12;16.40;;;6.30;;
51560;SDS011;37654;51.262;17.058;2023-08-07T03:54:37;15.93;;;7.27;;
51560;SDS011;37654;51.262;17.058;2023-08-07T03:57:03;16.42;;;7.25;;
51560;SDS011;37654;51.262;17.058;2023-08-07T03:59:28;11.85;;;6.18;;
51560;SDS011;37654;51.262;17.058;2023-08-07T04:01:54;12.07;;;6.63;;
51560;SDS011;37654;51.262;17.058;2023-08-07T04:04:19;10.83;;;6.03;;
51560;SDS011;37654;51.262;17.058;2023-08-07T04:06:44;13.77;;;6.70;;
51560;SDS011;37654;51.262;17.058;2023-08-07T04:09:09;20.23;;;5.97;;
51560;SDS011;37654;51.262;17.058;2023-08-07T04:11:35;13.95;;;6.05;;
51560;SDS011;37654;51.262;17.058;2023-08-07T04:14:00;11.80;;;6.47;;
51560;SDS011;37654;51.262;17.058;2023-08-07T04:16:26;11.63;;;6.07;;
51560;SDS011;37654;51.262;17.058;2023-08-07T04:18:51;13.83;;;6.50;;
51560;SDS011;37654;51.262;17.058;2023-08-07T04:21:16;11.30;;;6.27;;
51560;SDS011;37654;51.262;17.058;2023-08-07T04:23:41;11.97;;;6.27;;
51560;SDS011;37654;51.262;17.058;2023-08-07T04:26:07;17.60;;;7.83;;
51560;SDS011;37654;51.262;17.058;2023-08-07T04:28:32;15.97;;;7.50;;
51560;SDS011;37654;51.262;17.058;2023-08-07T04:30:57;12.23;;;7.17;;
51560;SDS011;37654;51.262;17.058;2023-08-07T04:33:22;14.30;;;7.50;;
51560;SDS011;37654;51.262;17.058;2023-08-07T04:35:48;12.70;;;7.27;;
51560;SDS011;37654;51.262;17.058;2023-08-07T04:38:13;12.13;;;7.05;;
51560;SDS011;37654;51.262;17.058;2023-08-07T04:40:43;16.08;;;7.32;;
51560;SDS011;37654;51.262;17.058;2023-08-07T04:43:08;18.00;;;7.15;;
51560;SDS011;37654;51.262;17.058;2023-08-07T04:45:33;12.83;;;7.43;;
51560;SDS011;37654;51.262;17.058;2023-08-07T04:47:59;13.70;;;7.03;;
51560;SDS011;37654;51.262;17.058;2023-08-07T04:50:24;13.93;;;7.37;;
51560;SDS011;37654;51.262;17.058;2023-08-07T04:52:49;10.20;;;6.30;;
51560;SDS011;37654;51.262;17.058;2023-08-07T04:55:14;11.20;;;7.07;;
51560;SDS011;37654;51.262;17.058;2023-08-07T04:57:40;11.18;;;6.80;;
51560;SDS011;37654;51.262;17.058;2023-08-07T05:00:05;11.37;;;6.93;;
51560;SDS011;37654;51.262;17.058;2023-08-07T05:02:31;12.60;;;6.88;;
51560;SDS011;37654;51.262;17.058;2023-08-07T05:04:56;19.73;;;7.43;;
51560;SDS011;37654;51.262;17.058;2023-08-07T05:07:21;9.47;;;6.10;;
51560;SDS011;37654;51.262;17.058;2023-08-07T05:09:46;10.70;;;5.78;;
51560;SDS011;37654;51.262;17.058;2023-08-07T05:12:12;12.77;;;6.23;;
51560;SDS011;37654;51.262;17.058;2023-08-07T05:14:37;11.10;;;6.83;;
51560;SDS011;37654;51.262;17.058;2023-08-07T05:17:02;11.13;;;6.97;;
51560;SDS011;37654;51.262;17.058;2023-08-07T05:19:28;9.70;;;6.70;;
51560;SDS011;37654;51.262;17.058;2023-08-07T05:21:53;15.67;;;7.83;;
51560;SDS011;37654;51.262;17.058;2023-08-07T05:24:18;12.53;;;6.57;;
51560;SDS011;37654;51.262;17.058;2023-08-07T05:26:44;12.30;;;7.57;;
51560;SDS011;37654;51.262;17.058;2023-08-07T05:29:09;11.38;;;6.57;;
51560;SDS011;37654;51.262;17.058;2023-08-07T05:31:34;7.50;;;4.73;;
51560;SDS011;37654;51.262;17.058;2023-08-07T05:34:00;10.68;;;5.82;;
51560;SDS011;37654;51.262;17.058;2023-08-07T05:36:25;10.95;;;6.28;;
51560;SDS011;37654;51.262;17.058;2023-08-07T05:38:50;8.10;;;5.17;;
51560;SDS011;37654;51.262;17.058;2023-08-07T05:41:16;8.87;;;5.50;;
51560;SDS011;37654;51.262;17.058;2023-08-07T05:43:41;9.38;;;5.53;;
51560;SDS011;37654;51.262;17.058;2023-08-07T05:46:06;7.63;;;4.33;;
51560;SDS011;37654;51.262;17.058;2023-08-07T05:48:32;6.10;;;4.33;;
51560;SDS011;37654;51.262;17.058;2023-08-07T05:50:57;5.33;;;4.07;;
51560;SDS011;37654;51.262;17.058;2023-08-07T05:53:22;5.57;;;3.77;;
51560;SDS011;37654;51.262;17.058;2023-08-07T05:55:47;7.83;;;4.03;;
51560;SDS011;37654;51.262;17.058;2023-08-07T05:58:13;8.53;;;5.57;;
51560;SDS011;37654;51.262;17.058;2023-08-07T06:00:38;5.07;;;3.43;;
51560;SDS011;37654;51.262;17.058;2023-08-07T06:03:04;6.78;;;4.18;;
51560;SDS011;37654;51.262;17.058;2023-08-07T06:05:29;6.68;;;4.68;;
51560;SDS011;37654;51.262;17.058;2023-08-07T06:07:55;7.13;;;3.90;;
51560;SDS011;37654;51.262;17.058;2023-08-07T06:10:20;6.28;;;3.35;;
51560;SDS011;37654;51.262;17.058;2023-08-07T06:12:45;8.05;;;3.65;;
51560;SDS011;37654;51.262;17.058;2023-08-07T06:15:10;5.93;;;3.50;;
51560;SDS011;37654;51.262;17.058;2023-08-07T06:17:36;4.90;;;3.30;;
51560;SDS011;37654;51.262;17.058;2023-08-07T06:20:01;7.45;;;3.70;;
51560;SDS011;37654;51.262;17.058;2023-08-07T06:22:29;6.20;;;3.83;;
51560;SDS011;37654;51.262;17.058;2023-08-07T06:24:54;3.90;;;2.63;;
51560;SDS011;37654;51.262;17.058;2023-08-07T06:27:20;7.87;;;3.60;;
51560;SDS011;37654;51.262;17.058;2023-08-07T06:29:46;4.65;;;3.25;;
51560;SDS011;37654;51.262;17.058;2023-08-07T06:32:11;5.40;;;3.57;;
51560;SDS011;37654;51.262;17.058;2023-08-07T06:34:36;4.78;;;3.22;;
51560;SDS011;37654;51.262;17.058;2023-08-07T06:37:03;4.75;;;3.38;;
51560;SDS011;37654;51.262;17.058;2023-08-07T06:39:28;4.03;;;2.88;;
51560;SDS011;37654;51.262;17.058;2023-08-07T06:41:54;9.20;;;3.15;;
51560;SDS011;37654;51.262;17.058;2023-08-07T06:44:20;3.67;;;2.75;;
51560;SDS011;37654;51.262;17.058;2023-08-07T06:46:45;3.27;;;2.10;;
51560;SDS011;37654;51.262;17.058;2023-08-07T06:49:10;5.05;;;2.33;;
51560;SDS011;37654;51.262;17.058;2023-08-07T06:51:35;4.37;;;2.30;;
51560;SDS011;37654;51.262;17.058;2023-08-07T06:54:01;3.00;;;2.30;;
51560;SDS011;37654;51.262;17.058;2023-08-07T06:56:26;3.43;;;2.10;;
51560;SDS011;37654;51.262;17.058;2023-08-07T06:58:52;3.17;;;2.28;;
51560;SDS011;37654;51.262;17.058;2023-08-07T07:01:19;2.90;;;2.20;;
51560;SDS011;37654;51.262;17.058;2023-08-07T07:03:45;3.63;;;1.90;;
51560;SDS011;37654;51.262;17.058;2023-08-07T07:06:12;3.92;;;2.22;;
51560;SDS011;37654;51.262;17.058;2023-08-07T07:08:37;6.78;;;1.90;;
51560;SDS011;37654;51.262;17.058;2023-08-07T07:11:02;3.13;;;1.90;;
51560;SDS011;37654;51.262;17.058;2023-08-07T07:13:29;3.97;;;2.05;;
51560;SDS011;37654;51.262;17.058;2023-08-07T07:15:55;2.90;;;1.97;;
51560;SDS011;37654;51.262;17.058;2023-08-07T07:18:20;6.60;;;2.05;;
51560;SDS011;37654;51.262;17.058;2023-08-07T07:20:45;3.93;;;2.20;;
51560;SDS011;37654;51.262;17.058;2023-08-07T07:23:11;3.67;;;2.33;;
51560;SDS011;37654;51.262;17.058;2023-08-07T07:25:36;2.20;;;1.90;;
51560;SDS011;37654;51.262;17.058;2023-08-07T07:28:01;5.33;;;2.00;;
51560;SDS011;37654;51.262;17.058;2023-08-07T07:30:26;3.37;;;2.03;;
51560;SDS011;37654;51.262;17.058;2023-08-07T07:32:52;5.60;;;2.15;;
51560;SDS011;37654;51.262;17.058;2023-08-07T07:35:17;2.73;;;1.97;;
51560;SDS011;37654;51.262;17.058;2023-08-07T07:37:42;1.27;;;1.13;;
51560;SDS011;37654;51.262;17.058;2023-08-07T07:40:08;2.90;;;2.00;;
51560;SDS011;37654;51.262;17.058;2023-08-07T07:42:33;2.13;;;1.60;;
51560;SDS011;37654;51.262;17.058;2023-08-07T07:44:59;5.67;;;2.50;;
51560;SDS011;37654;51.262;17.058;2023-08-07T07:47:24;5.77;;;2.70;;
51560;SDS011;37654;51.262;17.058;2023-08-07T07:50:03;3.30;;;2.10;;
51560;SDS011;37654;51.262;17.058;2023-08-07T07:52:29;3.53;;;1.92;;
51560;SDS011;37654;51.262;17.058;2023-08-07T07:54:54;4.10;;;1.50;;
51560;SDS011;37654;51.262;17.058;2023-08-07T07:57:19;4.53;;;1.60;;
51560;SDS011;37654;51.262;17.058;2023-08-07T07:59:45;6.10;;;2.10;;
51560;SDS011;37654;51.262;17.058;2023-08-07T08:02:10;5.63;;;1.53;;
51560;SDS011;37654;51.262;17.058;2023-08-07T08:04:35;5.30;;;1.77;;
51560;SDS011;37654;51.262;17.058;2023-08-07T08:07:01;2.87;;;1.77;;
51560;SDS011;37654;51.262;17.058;2023-08-07T08:09:26;5.20;;;1.87;;
51560;SDS011;37654;51.262;17.058;2023-08-07T08:11:51;4.03;;;2.47;;
51560;SDS011;37654;51.262;17.058;2023-08-07T08:14:17;3.43;;;2.50;;
51560;SDS011;37654;51.262;17.058;2023-08-07T08:16:42;3.03;;;2.33;;
51560;SDS011;37654;51.262;17.058;2023-08-07T08:19:07;2.43;;;1.60;;
51560;SDS011;37654;51.262;17.058;2023-08-07T08:21:34;3.60;;;1.85;;
51560;SDS011;37654;51.262;17.058;2023-08-07T08:24:00;2.93;;;1.70;;
51560;SDS011;37654;51.262;17.058;2023-08-07T08:26:25;2.40;;;1.48;;
51560;SDS011;37654;51.262;17.058;2023-08-07T08:28:50;3.23;;;1.70;;
51560;SDS011;37654;51.262;17.058;2023-08-07T08:31:16;6.40;;;1.93;;
51560;SDS011;37654;51.262;17.058;2023-08-07T08:33:41;5.77;;;1.80;;
51560;SDS011;37654;51.262;17.058;2023-08-07T08:36:06;4.23;;;1.50;;
51560;SDS011;37654;51.262;17.058;2023-08-07T08:38:31;2.83;;;1.80;;
51560;SDS011;37654;51.262;17.058;2023-08-07T08:40:58;3.22;;;1.50;;
51560;SDS011;37654;51.262;17.058;2023-08-07T08:43:26;5.78;;;2.15;;
51560;SDS011;37654;51.262;17.058;2023-08-07T08:45:52;4.13;;;2.47;;
51560;SDS011;37654;51.262;17.058;2023-08-07T08:48:19;5.17;;;2.27;;
51560;SDS011;37654;51.262;17.058;2023-08-07T08:50:47;2.70;;;2.10;;
51560;SDS011;37654;51.262;17.058;2023-08-07T08:53:15;2.95;;;1.73;;
51560;SDS011;37654;51.262;17.058;2023-08-07T08:55:40;3.72;;;1.55;;
51560;SDS011;37654;51.262;17.058;2023-08-07T08:58:08;3.72;;;2.00;;
51560;SDS011;37654;51.262;17.058;2023-08-07T09:00:33;3.30;;;1.85;;
51560;SDS011;37654;51.262;17.058;2023-08-07T09:02:59;3.80;;;1.98;;
51560;SDS011;37654;51.262;17.058;2023-08-07T09:05:26;5.60;;;2.05;;
51560;SDS011;37654;51.262;17.058;2023-08-07T09:07:52;3.97;;;2.03;;
51560;SDS011;37654;51.262;17.058;2023-08-07T09:10:17;3.13;;;2.10;;
51560;SDS011;37654;51.262;17.058;2023-08-07T09:12:53;6.30;;;1.80;;
51560;SDS011;37654;51.262;17.058;2023-08-07T09:15:19;3.90;;;1.70;;
51560;SDS011;37654;51.262;17.058;2023-08-07T09:17:45;3.00;;;2.00;;
51560;SDS011;37654;51.262;17.058;2023-08-07T09:20:11;6.40;;;2.20;;
51560;SDS011;37654;51.262;17.058;2023-08-07T09:22:38;6.40;;;1.70;;
51560;SDS011;37654;51.262;17.058;2023-08-07T09:25:04;3.85;;;1.92;;
51560;SDS011;37654;51.262;17.058;2023-08-07T09:27:30;4.35;;;1.60;;
51560;SDS011;37654;51.262;17.058;2023-08-07T09:29:56;1.83;;;1.38;;
51560;SDS011;37654;51.262;17.058;2023-08-07T09:32:21;3.00;;;1.60;;
51560;SDS011;37654;51.262;17.058;2023-08-07T09:34:49;3.13;;;1.98;;
51560;SDS011;37654;51.262;17.058;2023-08-07T09:37:14;5.10;;;1.50;;
51560;SDS011;37654;51.262;17.058;2023-08-07T09:39:40;5.30;;;1.50;;
51560;SDS011;37654;51.262;17.058;2023-08-07T09:42:08;5.40;;;1.52;;
51560;SDS011;37654;51.262;17.058;2023-08-07T09:44:37;3.03;;;1.50;;
51560;SDS011;37654;51.262;17.058;2023-08-07T09:49:38;1.10;;;1.00;;
51560;SDS011;37654;51.262;17.058;2023-08-07T09:52:05;4.57;;;1.60;;
51560;SDS011;37654;51.262;17.058;2023-08-07T09:54:31;3.60;;;1.10;;
51560;SDS011;37654;51.262;17.058;2023-08-07T09:56:57;3.13;;;1.20;;
51560;SDS011;37654;51.262;17.058;2023-08-07T09:59:22;2.23;;;1.40;;
51560;SDS011;37654;51.262;17.058;2023-08-07T10:01:47;2.73;;;1.83;;
51560;SDS011;37654;51.262;17.058;2023-08-07T10:04:13;2.88;;;1.30;;
51560;SDS011;37654;51.262;17.058;2023-08-07T10:06:41;1.73;;;1.20;;
51560;SDS011;37654;51.262;17.058;2023-08-07T10:09:06;5.10;;;1.60;;
51560;SDS011;37654;51.262;17.058;2023-08-07T10:11:34;4.95;;;1.70;;
51560;SDS011;37654;51.262;17.058;2023-08-07T10:14:00;2.60;;;1.40;;
51560;SDS011;37654;51.262;17.058;2023-08-07T10:16:26;5.00;;;1.40;;
51560;SDS011;37654;51.262;17.058;2023-08-07T10:18:52;1.67;;;1.17;;
51560;SDS011;37654;51.262;17.058;2023-08-07T10:21:17;3.10;;;1.37;;
51560;SDS011;37654;51.262;17.058;2023-08-07T10:23:43;3.53;;;1.20;;
51560;SDS011;37654;51.262;17.058;2023-08-07T10:26:08;2.53;;;1.17;;
51560;SDS011;37654;51.262;17.058;2023-08-07T10:28:35;3.30;;;1.17;;
51560;SDS011;37654;51.262;17.058;2023-08-07T10:31:05;2.25;;;1.30;;
51560;SDS011;37654;51.262;17.058;2023-08-07T10:33:31;2.40;;;1.40;;
51560;SDS011;37654;51.262;17.058;2023-08-07T10:35:57;3.33;;;1.42;;
51560;SDS011;37654;51.262;17.058;2023-08-07T10:38:23;3.80;;;1.10;;
51560;SDS011;37654;51.262;17.058;2023-08-07T10:43:28;3.85;;;1.25;;
51560;SDS011;37654;51.262;17.058;2023-08-07T10:46:03;1.20;;;1.10;;
51560;SDS011;37654;51.262;17.058;2023-08-07T10:48:29;5.32;;;1.45;;
51560;SDS011;37654;51.262;17.058;2023-08-07T10:53:29;2.47;;;1.63;;
51560;SDS011;37654;51.262;17.058;2023-08-07T10:55:55;1.67;;;1.13;;
51560;SDS011;37654;51.262;17.058;2023-08-07T10:58:29;3.45;;;1.80;;
51560;SDS011;37654;51.262;17.058;2023-08-07T11:03:42;3.53;;;1.00;;
51560;SDS011;37654;51.262;17.058;2023-08-07T11:06:09;1.77;;;1.20;;
51560;SDS011;37654;51.262;17.058;2023-08-07T11:08:34;2.13;;;0.90;;
51560;SDS011;37654;51.262;17.058;2023-08-07T11:11:03;1.83;;;1.13;;
51560;SDS011;37654;51.262;17.058;2023-08-07T11:13:29;12.70;;;1.67;;
51560;SDS011;37654;51.262;17.058;2023-08-07T11:15:54;1.20;;;1.10;;
51560;SDS011;37654;51.262;17.058;2023-08-07T11:18:20;1.63;;;1.20;;
51560;SDS011;37654;51.262;17.058;2023-08-07T11:20:47;2.60;;;1.40;;
51560;SDS011;37654;51.262;17.058;2023-08-07T11:23:13;4.22;;;1.45;;
51560;SDS011;37654;51.262;17.058;2023-08-07T11:25:41;1.30;;;1.20;;
51560;SDS011;37654;51.262;17.058;2023-08-07T11:28:06;4.97;;;1.35;;
51560;SDS011;37654;51.262;17.058;2023-08-07T11:30:33;3.85;;;1.30;;
51560;SDS011;37654;51.262;17.058;2023-08-07T11:32:59;1.35;;;1.08;;
51560;SDS011;37654;51.262;17.058;2023-08-07T11:35:24;2.53;;;1.33;;
51560;SDS011;37654;51.262;17.058;2023-08-07T11:37:49;2.13;;;1.03;;
51560;SDS011;37654;51.262;17.058;2023-08-07T11:40:15;1.98;;;1.00;;
51560;SDS011;37654;51.262;17.058;2023-08-07T11:42:41;2.75;;;1.05;;
51560;SDS011;37654;51.262;17.058;2023-08-07T11:45:06;3.43;;;1.03;;
51560;SDS011;37654;51.262;17.058;2023-08-07T11:47:32;2.58;;;1.35;;
51560;SDS011;37654;51.262;17.058;2023-08-07T11:49:57;3.22;;;1.10;;
51560;SDS011;37654;51.262;17.058;2023-08-07T11:52:23;1.42;;;1.10;;
51560;SDS011;37654;51.262;17.058;2023-08-07T11:54:49;2.15;;;1.40;;
51560;SDS011;37654;51.262;17.058;2023-08-07T11:57:16;4.28;;;1.38;;
51560;SDS011;37654;51.262;17.058;2023-08-07T11:59:42;3.38;;;1.50;;
51560;SDS011;37654;51.262;17.058;2023-08-07T12:02:10;2.30;;;1.40;;
51560;SDS011;37654;51.262;17.058;2023-08-07T12:04:43;3.10;;;1.23;;
51560;SDS011;37654;51.262;17.058;2023-08-07T12:07:10;2.30;;;1.15;;
51560;SDS011;37654;51.262;17.058;2023-08-07T12:09:37;5.35;;;1.50;;
51560;SDS011;37654;51.262;17.058;2023-08-07T12:12:03;2.42;;;1.40;;
51560;SDS011;37654;51.262;17.058;2023-08-07T12:14:30;3.05;;;1.30;;
51560;SDS011;37654;51.262;17.058;2023-08-07T12:16:55;1.30;;;1.13;;
51560;SDS011;37654;51.262;17.058;2023-08-07T12:19:20;1.00;;;0.90;;
51560;SDS011;37654;51.262;17.058;2023-08-07T12:21:46;3.77;;;1.30;;
51560;SDS011;37654;51.262;17.058;2023-08-07T12:24:11;2.93;;;0.87;;
51560;SDS011;37654;51.262;17.058;2023-08-07T12:26:38;2.08;;;1.30;;
51560;SDS011;37654;51.262;17.058;2023-08-07T12:29:03;2.10;;;1.07;;
51560;SDS011;37654;51.262;17.058;2023-08-07T12:31:29;3.65;;;1.30;;
51560;SDS011;37654;51.262;17.058;2023-08-07T12:33:55;2.38;;;1.20;;
51560;SDS011;37654;51.262;17.058;2023-08-07T12:36:20;3.28;;;1.33;;
51560;SDS011;37654;51.262;17.058;2023-08-07T12:38:45;7.30;;;1.60;;
51560;SDS011;37654;51.262;17.058;2023-08-07T12:41:13;2.40;;;1.10;;
51560;SDS011;37654;51.262;17.058;2023-08-07T12:43:39;5.43;;;1.23;;
51560;SDS011;37654;51.262;17.058;2023-08-07T12:46:07;6.30;;;1.50;;
51560;SDS011;37654;51.262;17.058;2023-08-07T12:48:32;2.97;;;1.38;;
51560;SDS011;37654;51.262;17.058;2023-08-07T12:50:58;2.27;;;1.20;;
51560;SDS011;37654;51.262;17.058;2023-08-07T12:53:23;3.17;;;1.23;;
51560;SDS011;37654;51.262;17.058;2023-08-07T12:55:50;1.40;;;1.13;;
51560;SDS011;37654;51.262;17.058;2023-08-07T12:58:15;3.53;;;1.52;;
51560;SDS011;37654;51.262;17.058;2023-08-07T13:00:40;3.63;;;1.20;;
51560;SDS011;37654;51.262;17.058;2023-08-07T13:03:06;1.70;;;1.10;;
51560;SDS011;37654;51.262;17.058;2023-08-07T13:05:31;3.20;;;1.23;;
51560;SDS011;37654;51.262;17.058;2023-08-07T13:07:56;1.63;;;1.42;;
51560;SDS011;37654;51.262;17.058;2023-08-07T13:10:23;4.00;;;1.25;;
51560;SDS011;37654;51.262;17.058;2023-08-07T13:12:48;2.60;;;1.45;;
51560;SDS011;37654;51.262;17.058;2023-08-07T13:15:15;4.15;;;1.90;;
51560;SDS011;37654;51.262;17.058;2023-08-07T13:17:40;2.25;;;1.70;;
51560;SDS011;37654;51.262;17.058;2023-08-07T13:20:06;1.90;;;1.45;;
51560;SDS011;37654;51.262;17.058;2023-08-07T13:22:35;1.85;;;1.25;;
51560;SDS011;37654;51.262;17.058;2023-08-07T13:25:01;2.15;;;1.38;;
51560;SDS011;37654;51.262;17.058;2023-08-07T13:27:28;2.40;;;1.38;;
51560;SDS011;37654;51.262;17.058;2023-08-07T13:29:53;1.75;;;1.17;;
51560;SDS011;37654;51.262;17.058;2023-08-07T13:32:19;3.17;;;1.70;;
51560;SDS011;37654;51.262;17.058;2023-08-07T13:34:45;2.20;;;1.50;;
51560;SDS011;37654;51.262;17.058;2023-08-07T13:37:10;3.65;;;1.40;;
51560;SDS011;37654;51.262;17.058;2023-08-07T13:39:36;3.27;;;1.37;;
51560;SDS011;37654;51.262;17.058;2023-08-07T13:42:01;2.30;;;1.20;;
51560;SDS011;37654;51.262;17.058;2023-08-07T13:44:26;1.80;;;1.23;;
51560;SDS011;37654;51.262;17.058;2023-08-07T13:46:52;3.90;;;1.70;;
51560;SDS011;37654;51.262;17.058;2023-08-07T13:49:17;6.95;;;2.50;;
51560;SDS011;37654;51.262;17.058;2023-08-07T13:51:43;1.87;;;0.90;;
51560;SDS011;37654;51.262;17.058;2023-08-07T13:54:08;2.57;;;1.37;;
51560;SDS011;37654;51.262;17.058;2023-08-07T13:56:33;3.10;;;1.40;;
51560;SDS011;37654;51.262;17.058;2023-08-07T13:58:59;1.83;;;1.13;;
51560;SDS011;37654;51.262;17.058;2023-08-07T14:01:25;2.05;;;1.27;;
51560;SDS011;37654;51.262;17.058;2023-08-07T14:03:50;3.33;;;1.20;;
51560;SDS011;37654;51.262;17.058;2023-08-07T14:06:15;1.73;;;0.97;;
51560;SDS011;37654;51.262;17.058;2023-08-07T14:08:40;2.00;;;1.10;;
51560;SDS011;37654;51.262;17.058;2023-08-07T14:11:06;4.37;;;1.83;;
51560;SDS011;37654;51.262;17.058;2023-08-07T14:13:31;3.33;;;1.60;;
51560;SDS011;37654;51.262;17.058;2023-08-07T14:15:56;5.23;;;2.37;;
51560;SDS011;37654;51.262;17.058;2023-08-07T14:18:22;3.43;;;1.17;;
51560;SDS011;37654;51.262;17.058;2023-08-07T14:20:47;1.70;;;1.00;;
51560;SDS011;37654;51.262;17.058;2023-08-07T14:23:12;6.57;;;1.27;;
51560;SDS011;37654;51.262;17.058;2023-08-07T14:25:37;1.93;;;1.00;;
51560;SDS011;37654;51.262;17.058;2023-08-07T14:28:03;5.37;;;1.20;;
51560;SDS011;37654;51.262;17.058;2023-08-07T14:30:29;1.92;;;1.20;;
51560;SDS011;37654;51.262;17.058;2023-08-07T14:32:54;2.67;;;1.33;;
51560;SDS011;37654;51.262;17.058;2023-08-07T14:35:19;1.20;;;0.93;;
51560;SDS011;37654;51.262;17.058;2023-08-07T14:37:45;0.60;;;0.57;;